createdAt,value
2022-09-20T00:01:53.056Z,13.00
2022-09-20T00:04:22.336Z,12.83
2022-09-20T00:06:52.375Z,12.95
2022-09-20T00:09:22.061Z,13.02
2022-09-20T00:11:51.847Z,12.90
2022-09-20T00:14:20.621Z,12.94
2022-09-20T00:16:49.390Z,13.03
2022-09-20T00:19:23.150Z,12.93
2022-09-20T00:21:51.845Z,12.92
2022-09-20T00:24:20.866Z,12.97
2022-09-20T00:26:49.451Z,13.07
2022-09-20T00:29:18.141Z,13.03
2022-09-20T00:31:48.063Z,13.07
2022-09-20T00:34:35.038Z,13.12
2022-09-20T00:37:03.870Z,13.14
2022-09-20T00:39:32.807Z,13.22
2022-09-20T00:42:01.603Z,13.17
2022-09-20T00:45:00.843Z,13.26
2022-09-20T00:47:37.021Z,13.17
2022-09-20T00:50:42.368Z,13.25
2022-09-20T00:53:17.421Z,13.17
2022-09-20T00:56:02.500Z,13.25
2022-09-20T00:58:37.687Z,13.25
2022-09-20T01:01:07.570Z,13.16
2022-09-20T01:03:37.957Z,13.25
2022-09-20T01:06:11.008Z,13.35
2022-09-20T01:08:40.887Z,13.29
2022-09-20T01:11:09.585Z,13.25
2022-09-20T01:13:38.416Z,13.34
2022-09-20T01:16:08.801Z,13.36
2022-09-20T01:18:39.196Z,13.17
2022-09-20T01:21:09.795Z,13.29
2022-09-20T01:23:57.466Z,13.36
2022-09-20T01:26:28.837Z,13.38
2022-09-20T01:29:17.667Z,13.38
2022-09-20T01:31:53.808Z,13.37
2022-09-20T01:34:29.944Z,13.22
2022-09-20T01:37:23.963Z,13.40
2022-09-20T01:39:58.245Z,13.46
2022-09-20T01:42:37.138Z,13.30
2022-09-20T01:45:23.236Z,13.50
2022-09-20T01:48:20.025Z,13.39
2022-09-20T01:51:19.748Z,13.42
2022-09-20T01:54:40.943Z,14.14
2022-09-20T01:57:40.062Z,14.75
2022-09-20T02:00:18.641Z,14.69
2022-09-20T02:03:05.649Z,14.47
2022-09-20T02:06:11.803Z,14.25
2022-09-20T02:08:49.718Z,14.06
2022-09-20T02:11:45.661Z,13.90
2022-09-20T02:14:50.417Z,13.76
2022-09-20T02:17:49.637Z,13.78
2022-09-20T02:20:48.561Z,13.95
2022-09-20T02:23:37.887Z,13.92
2022-09-20T02:26:45.850Z,14.13
2022-09-20T02:29:41.034Z,14.17
2022-09-20T02:32:19.473Z,14.40
2022-09-20T02:35:37.130Z,14.56
2022-09-20T02:38:23.653Z,14.69
2022-09-20T02:41:09.693Z,14.74
2022-09-20T02:44:17.891Z,14.88
2022-09-20T02:47:08.089Z,15.10
2022-09-20T02:50:07.408Z,15.50
2022-09-20T02:52:44.435Z,15.72
2022-09-20T02:55:19.731Z,15.71
2022-09-20T02:58:05.951Z,15.99
2022-09-20T03:00:44.027Z,16.07
2022-09-20T03:03:19.034Z,16.23
2022-09-20T03:05:56.393Z,16.40
2022-09-20T03:08:34.213Z,16.58
2022-09-20T03:11:21.193Z,16.81
2022-09-20T03:14:06.385Z,16.99
2022-09-20T03:17:22.329Z,17.26
2022-09-20T03:20:16.761Z,17.46
2022-09-20T03:23:14.570Z,17.66
2022-09-20T03:25:58.305Z,17.73
2022-09-20T03:29:08.002Z,17.90
2022-09-20T03:31:55.617Z,18.01
2022-09-20T03:34:33.421Z,18.08
2022-09-20T03:37:17.445Z,18.18
2022-09-20T03:40:16.674Z,18.37
2022-09-20T03:42:52.767Z,18.51
2022-09-20T03:45:34.068Z,18.46
2022-09-20T03:48:30.734Z,18.69
2022-09-20T03:51:24.634Z,18.76
2022-09-20T03:54:13.890Z,18.83
2022-09-20T03:57:20.192Z,18.77
2022-09-20T04:00:06.830Z,18.98
2022-09-20T04:03:23.248Z,19.03
2022-09-20T04:06:11.090Z,19.01
2022-09-20T04:08:55.677Z,19.07
2022-09-20T04:12:00.436Z,19.11
2022-09-20T04:14:54.390Z,19.08
2022-09-20T04:17:47.624Z,19.08
2022-09-20T04:20:16.474Z,19.08
2022-09-20T04:22:47.654Z,18.94
2022-09-20T04:25:24.205Z,19.07
2022-09-20T04:28:11.875Z,18.89
2022-09-20T04:30:44.916Z,18.91
2022-09-20T04:33:26.677Z,18.95
2022-09-20T04:36:32.537Z,18.87
2022-09-20T04:39:02.759Z,18.88
2022-09-20T04:42:09.764Z,18.84
2022-09-20T04:44:56.664Z,18.89
2022-09-20T04:47:40.230Z,18.91
2022-09-20T04:50:31.552Z,18.90
2022-09-20T04:53:30.431Z,18.94
2022-09-20T04:56:08.221Z,19.00
2022-09-20T04:59:06.885Z,19.00
2022-09-20T05:02:29.797Z,19.05
2022-09-20T05:05:22.503Z,19.13
2022-09-20T05:08:35.088Z,19.13
2022-09-20T05:11:32.304Z,19.31
2022-09-20T05:14:28.476Z,19.41
2022-09-20T05:17:15.497Z,19.43
2022-09-20T05:20:04.137Z,19.76
2022-09-20T05:22:54.284Z,19.93
2022-09-20T05:25:40.777Z,20.09
2022-09-20T05:28:24.971Z,20.38
2022-09-20T05:30:58.726Z,20.48
2022-09-20T05:33:49.104Z,20.72
2022-09-20T05:36:45.410Z,20.59
2022-09-20T05:39:48.896Z,20.83
2022-09-20T05:42:24.739Z,20.96
2022-09-20T05:45:07.494Z,21.03
2022-09-20T05:48:37.980Z,21.16
2022-09-20T05:51:11.657Z,21.29
2022-09-20T05:54:18.287Z,21.32
2022-09-20T05:57:08.176Z,21.62
2022-09-20T06:00:28.680Z,21.89
2022-09-20T06:03:22.351Z,22.17
2022-09-20T06:06:12.292Z,22.32
2022-09-20T06:09:02.094Z,22.60
2022-09-20T06:11:49.604Z,22.57
2022-09-20T06:14:45.839Z,23.14
2022-09-20T06:17:20.147Z,23.16
2022-09-20T06:20:04.160Z,23.06
2022-09-20T06:22:39.679Z,23.00
2022-09-20T06:25:08.556Z,23.04
2022-09-20T06:27:54.748Z,23.04
2022-09-20T06:30:31.715Z,23.09
2022-09-20T06:33:14.831Z,23.26
2022-09-20T06:35:54.742Z,23.30
2022-09-20T06:39:00.283Z,23.40
2022-09-20T06:41:31.940Z,23.47
2022-09-20T06:44:07.404Z,23.61
2022-09-20T06:46:37.241Z,23.67
2022-09-20T06:49:09.453Z,23.81
2022-09-20T06:51:40.175Z,23.87
2022-09-20T06:54:16.322Z,23.88
2022-09-20T06:56:47.678Z,23.88
2022-09-20T06:59:16.280Z,24.11
2022-09-20T07:01:45.711Z,24.11
2022-09-20T07:04:14.597Z,24.31
2022-09-20T07:06:43.300Z,24.36
2022-09-20T07:09:12.680Z,24.38
2022-09-20T07:11:41.432Z,24.47
2022-09-20T07:14:10.315Z,24.55
2022-09-20T07:16:39.518Z,24.61
2022-09-20T07:19:09.020Z,24.79
2022-09-20T07:21:38.023Z,25.03
2022-09-20T07:24:06.843Z,25.19
2022-09-20T07:26:35.875Z,25.16
2022-09-20T07:29:04.995Z,25.21
2022-09-20T07:31:34.178Z,25.30
2022-09-20T07:34:03.098Z,25.17
2022-09-20T07:36:31.717Z,25.21
2022-09-20T07:39:00.592Z,25.30
2022-09-20T07:41:32.093Z,25.39
2022-09-20T07:44:20.686Z,25.64
2022-09-20T07:46:50.480Z,25.98
2022-09-20T07:49:19.744Z,26.21
2022-09-20T07:51:49.767Z,26.58
2022-09-20T07:54:18.993Z,26.81
2022-09-20T07:56:48.428Z,27.10
2022-09-20T07:59:17.421Z,27.32
2022-09-20T08:01:46.291Z,27.34
2022-09-20T08:04:15.486Z,27.56
2022-09-20T08:06:46.067Z,27.69
2022-09-20T08:09:15.642Z,27.92
2022-09-20T08:11:44.766Z,27.89
2022-09-20T08:14:18.735Z,28.05
2022-09-20T08:16:53.431Z,28.10
2022-09-20T08:19:23.827Z,28.26
2022-09-20T08:21:54.771Z,28.25
2022-09-20T08:24:23.897Z,28.39
2022-09-20T08:26:52.776Z,28.38
2022-09-20T08:29:21.668Z,28.44
2022-09-20T08:31:50.308Z,28.31
2022-09-20T08:34:19.579Z,28.48
2022-09-20T08:36:50.856Z,28.46
2022-09-20T08:42:24.477Z,28.63
2022-09-20T08:45:02.558Z,28.64
2022-09-20T08:47:37.855Z,28.73
2022-09-20T08:50:09.494Z,28.69
2022-09-20T08:52:40.942Z,28.73
2022-09-20T08:55:19.483Z,28.77
2022-09-20T08:57:55.413Z,28.77
2022-09-20T09:00:27.756Z,28.74
2022-09-20T09:02:59.011Z,28.76
2022-09-20T09:05:44.131Z,28.61
2022-09-20T09:08:23.148Z,28.70
2022-09-20T09:11:18.535Z,28.67
2022-09-20T09:14:05.449Z,28.74
2022-09-20T09:16:36.658Z,28.70
2022-09-20T09:19:34.576Z,28.57
2022-09-20T09:22:06.495Z,28.50
2022-09-20T09:24:35.083Z,28.57
2022-09-20T09:27:20.750Z,28.44
2022-09-20T09:29:55.820Z,28.19
2022-09-20T09:32:30.065Z,28.31
2022-09-20T09:35:21.257Z,28.16
2022-09-20T09:37:59.315Z,28.22
2022-09-20T09:40:30.287Z,28.33
2022-09-20T09:43:02.462Z,28.28
2022-09-20T09:45:39.381Z,28.25
2022-09-20T09:48:22.748Z,28.29
2022-09-20T09:50:52.370Z,28.26
2022-09-20T09:53:24.076Z,28.20
2022-09-20T09:55:53.406Z,28.22
2022-09-20T09:58:40.114Z,28.21
2022-09-20T10:01:22.398Z,28.20
2022-09-20T10:04:02.150Z,28.16
2022-09-20T10:06:52.227Z,28.07
2022-09-20T10:09:32.784Z,27.86
2022-09-20T10:12:58.669Z,27.95
2022-09-20T10:15:42.424Z,28.07
2022-09-20T10:18:25.463Z,27.97
2022-09-20T10:21:09.198Z,27.99
2022-09-20T10:24:02.722Z,28.02
2022-09-20T10:26:50.500Z,27.93
2022-09-20T10:29:32.699Z,27.96
2022-09-20T10:32:16.882Z,27.87
2022-09-20T10:35:15.242Z,27.78
2022-09-20T10:38:02.145Z,27.87
2022-09-20T10:41:16.909Z,27.91
2022-09-20T10:44:19.678Z,27.93
2022-09-20T10:47:03.237Z,27.94
2022-09-20T10:49:50.719Z,27.86
2022-09-20T10:52:32.508Z,27.80
2022-09-20T10:55:36.087Z,27.84
2022-09-20T10:58:22.637Z,27.83
2022-09-20T11:01:01.667Z,27.84
2022-09-20T11:03:49.170Z,27.78
2022-09-20T11:06:40.956Z,27.73
2022-09-20T11:09:18.351Z,27.58
2022-09-20T11:12:11.152Z,27.49
2022-09-20T11:15:05.267Z,27.60
2022-09-20T11:17:42.121Z,27.47
2022-09-20T11:20:23.410Z,27.51
2022-09-20T11:23:12.884Z,27.45
2022-09-20T11:25:49.255Z,27.42
2022-09-20T11:28:27.241Z,27.47
2022-09-20T11:31:27.165Z,27.42
2022-09-20T11:34:02.502Z,27.32
2022-09-20T11:36:44.653Z,27.32
2022-09-20T11:39:26.637Z,27.21
2022-09-20T11:41:58.020Z,27.23
2022-09-20T11:44:27.226Z,26.98
2022-09-20T11:47:04.510Z,27.15
2022-09-20T11:49:51.281Z,27.07
2022-09-20T11:52:44.450Z,26.98
2022-09-20T11:55:42.021Z,26.70
2022-09-20T11:58:17.804Z,26.89
2022-09-20T12:00:49.723Z,26.81
2022-09-20T12:03:40.990Z,26.68
2022-09-20T12:06:21.471Z,26.54
2022-09-20T12:08:52.646Z,26.53
2022-09-20T12:11:34.542Z,26.47
2022-09-20T12:14:08.309Z,26.29
2022-09-20T12:16:47.746Z,26.33
2022-09-20T12:19:22.458Z,26.22
2022-09-20T12:22:00.471Z,26.12
2022-09-20T12:24:34.665Z,25.91
2022-09-20T12:27:23.065Z,25.78
2022-09-20T12:30:04.126Z,25.56
2022-09-20T12:32:46.100Z,25.45
2022-09-20T12:35:53.706Z,25.34
2022-09-20T12:38:22.396Z,25.15
2022-09-20T12:41:15.054Z,24.74
2022-09-20T12:44:22.809Z,24.78
2022-09-20T12:47:01.066Z,24.51
2022-09-20T12:49:48.099Z,24.47
2022-09-20T12:52:56.561Z,24.22
2022-09-20T12:55:31.006Z,24.03
2022-09-20T12:57:59.561Z,23.72
2022-09-20T13:00:40.346Z,23.43
2022-09-20T13:03:29.257Z,23.40
2022-09-20T13:06:07.476Z,23.29
2022-09-20T13:08:49.001Z,23.00
2022-09-20T13:11:42.812Z,23.00
2022-09-20T13:14:25.025Z,22.83
2022-09-20T13:17:21.870Z,22.62
2022-09-20T13:19:56.713Z,22.45
2022-09-20T13:25:14.177Z,22.06
2022-09-20T13:28:25.440Z,21.95
2022-09-20T13:31:34.709Z,21.85
2022-09-20T13:34:26.809Z,21.64
2022-09-20T13:36:59.005Z,21.55
2022-09-20T13:39:38.208Z,21.42
2022-09-20T13:42:13.506Z,21.38
2022-09-20T13:44:49.779Z,21.29
2022-09-20T13:47:27.566Z,21.04
2022-09-20T13:50:19.615Z,21.13
2022-09-20T13:52:57.226Z,21.03
2022-09-20T13:55:29.574Z,21.01
2022-09-20T13:58:03.813Z,20.86
2022-09-20T14:00:35.698Z,20.18
2022-09-20T14:03:05.866Z,20.61
2022-09-20T14:05:35.027Z,20.52
2022-09-20T14:08:04.248Z,20.28
2022-09-20T14:10:41.644Z,20.38
2022-09-20T14:13:17.799Z,20.38
2022-09-20T14:15:48.949Z,20.15
2022-09-20T14:18:21.988Z,20.26
2022-09-20T14:20:51.319Z,20.20
2022-09-20T14:23:28.489Z,19.95
2022-09-20T14:26:30.227Z,20.11
2022-09-20T14:29:40.852Z,20.01
2022-09-20T14:32:18.478Z,19.92
2022-09-20T14:34:57.587Z,19.82
2022-09-20T14:37:26.667Z,19.75
2022-09-20T14:40:01.851Z,19.59
2022-09-20T14:43:04.371Z,19.49
2022-09-20T14:45:36.005Z,19.44
2022-09-20T14:48:27.627Z,19.33
2022-09-20T14:51:19.604Z,19.10
2022-09-20T14:53:52.488Z,19.10
2022-09-20T14:56:35.431Z,19.14
2022-09-20T14:59:22.004Z,19.09
2022-09-20T15:02:04.232Z,19.07
2022-09-20T15:04:38.809Z,18.79
2022-09-20T15:07:14.370Z,18.98
2022-09-20T15:09:43.230Z,18.87
2022-09-20T15:12:18.908Z,18.71
2022-09-20T15:14:48.893Z,18.79
2022-09-20T15:17:22.893Z,18.67
2022-09-20T15:19:51.732Z,18.41
2022-09-20T15:22:22.919Z,18.43
2022-09-20T15:24:51.705Z,18.40
2022-09-20T15:27:21.075Z,18.38
2022-09-20T15:29:51.953Z,18.40
2022-09-20T15:32:20.728Z,18.25
2022-09-20T15:34:49.540Z,18.15
2022-09-20T15:37:18.473Z,18.06
2022-09-20T15:39:47.266Z,18.09
2022-09-20T15:42:17.653Z,17.86
2022-09-20T15:44:53.968Z,17.87
2022-09-20T15:47:24.259Z,17.90
2022-09-20T15:49:57.579Z,17.85
2022-09-20T15:52:29.956Z,17.81
2022-09-20T15:55:14.158Z,17.79
2022-09-20T15:57:42.927Z,17.91
2022-09-20T16:00:11.970Z,17.83
2022-09-20T16:02:40.900Z,17.74
2022-09-20T16:05:10.788Z,17.52
2022-09-20T16:07:39.788Z,17.58
2022-09-20T16:10:10.350Z,17.35
2022-09-20T16:12:41.616Z,17.64
2022-09-20T16:15:11.252Z,17.47
2022-09-20T16:17:58.337Z,17.50
2022-09-20T16:20:27.165Z,17.36
2022-09-20T16:22:55.860Z,17.36
2022-09-20T16:25:24.626Z,17.24
2022-09-20T16:27:53.495Z,17.21
2022-09-20T16:30:22.186Z,17.17
2022-09-20T16:32:51.591Z,17.01
2022-09-20T16:35:20.537Z,17.12
2022-09-20T16:37:49.449Z,17.07
2022-09-20T16:40:18.354Z,17.14
2022-09-20T16:42:52.229Z,16.97
2022-09-20T16:45:22.287Z,17.00
2022-09-20T16:47:50.963Z,16.93
2022-09-20T16:50:20.205Z,16.84
2022-09-20T16:52:49.044Z,16.85
2022-09-20T16:55:18.842Z,16.76
2022-09-20T16:57:53.829Z,16.71
2022-09-20T17:00:22.837Z,16.74
2022-09-20T17:02:52.117Z,16.77
2022-09-20T17:05:20.860Z,16.73
2022-09-20T17:07:49.779Z,16.77
2022-09-20T17:10:18.626Z,16.59
2022-09-20T17:12:53.514Z,16.59
2022-09-20T17:15:24.054Z,16.64
2022-09-20T17:17:52.720Z,16.56
2022-09-20T17:20:21.520Z,16.43
2022-09-20T17:22:50.300Z,16.55
2022-09-20T17:25:19.300Z,16.45
2022-09-20T17:27:50.187Z,16.26
2022-09-20T17:30:20.724Z,16.37
2022-09-20T17:32:52.457Z,16.00
2022-09-20T17:35:21.571Z,16.20
2022-09-20T17:37:50.856Z,16.19
2022-09-20T17:40:19.737Z,16.16
2022-09-20T17:42:51.382Z,16.09
2022-09-20T17:45:20.321Z,16.28
2022-09-20T17:47:49.004Z,16.29
2022-09-20T17:50:18.145Z,16.25
2022-09-20T17:52:50.482Z,16.10
2022-09-20T17:55:20.760Z,16.05
2022-09-20T17:57:50.490Z,15.97
2022-09-20T18:00:21.190Z,15.97
2022-09-20T18:02:50.112Z,15.99
2022-09-20T18:05:20.138Z,15.81
2022-09-20T18:07:49.290Z,15.26
2022-09-20T18:10:18.410Z,15.83
2022-09-20T18:12:47.909Z,15.81
2022-09-20T18:15:17.587Z,15.80
2022-09-20T18:17:47.796Z,15.75
2022-09-20T18:20:18.852Z,15.74
2022-09-20T18:22:50.756Z,15.99
2022-09-20T18:25:20.402Z,15.97
2022-09-20T18:27:50.194Z,15.80
2022-09-20T18:30:21.705Z,15.95
2022-09-20T18:32:53.424Z,15.89
2022-09-20T18:35:22.429Z,15.91
2022-09-20T18:37:51.082Z,16.01
2022-09-20T18:40:20.768Z,15.83
2022-09-20T18:42:52.855Z,15.97
2022-09-20T18:45:24.093Z,15.94
2022-09-20T18:47:57.885Z,15.92
2022-09-20T18:50:27.423Z,15.56
2022-09-20T18:52:56.479Z,15.69
2022-09-20T18:55:26.983Z,15.70
2022-09-20T18:58:00.685Z,15.59
2022-09-20T19:00:30.475Z,15.55
2022-09-20T19:03:12.066Z,15.62
2022-09-20T19:05:52.713Z,15.59
2022-09-20T19:08:35.104Z,15.56
2022-09-20T19:11:11.659Z,15.54
2022-09-20T19:13:47.777Z,15.53
2022-09-20T19:16:28.681Z,15.17
2022-09-20T19:19:22.553Z,15.44
2022-09-20T19:21:51.925Z,15.40
2022-09-20T19:24:40.443Z,15.30
2022-09-20T19:27:13.047Z,15.26
2022-09-20T19:29:42.844Z,15.17
2022-09-20T19:32:19.623Z,15.17
2022-09-20T19:34:52.465Z,15.09
2022-09-20T19:37:28.319Z,15.20
2022-09-20T19:40:35.977Z,15.04
2022-09-20T19:43:36.658Z,15.15
2022-09-20T19:46:33.056Z,15.07
2022-09-20T19:49:15.732Z,15.14
2022-09-20T19:51:46.331Z,15.14
2022-09-20T19:54:15.918Z,15.09
2022-09-20T19:57:08.322Z,15.14
2022-09-20T19:59:37.056Z,14.89
2022-09-20T20:02:06.641Z,14.79
2022-09-20T20:04:35.505Z,15.06
2022-09-20T20:07:21.491Z,15.16
2022-09-20T20:10:26.060Z,15.11
2022-09-20T20:13:37.484Z,14.96
2022-09-20T20:16:12.152Z,15.01
2022-09-20T20:19:07.546Z,15.00
2022-09-20T20:21:58.457Z,15.08
2022-09-20T20:24:50.820Z,14.96
2022-09-20T20:27:20.527Z,15.06
2022-09-20T20:29:50.129Z,14.95
2022-09-20T20:32:19.129Z,14.83
2022-09-20T20:34:47.825Z,14.89
2022-09-20T20:37:18.914Z,15.00
2022-09-20T20:39:47.592Z,14.94
2022-09-20T20:42:16.725Z,15.01
2022-09-20T20:44:46.242Z,14.96
2022-09-20T20:47:14.989Z,14.94
2022-09-20T20:49:43.639Z,15.00
2022-09-20T20:52:12.276Z,14.89
2022-09-20T20:54:41.007Z,14.87
2022-09-20T20:57:09.522Z,14.81
2022-09-20T20:59:41.009Z,14.90
2022-09-20T21:02:10.075Z,14.61
2022-09-20T21:04:40.818Z,14.78
2022-09-20T21:07:09.402Z,14.72
2022-09-20T21:09:38.415Z,14.72
2022-09-20T21:12:07.433Z,14.57
2022-09-20T21:14:36.098Z,14.50
2022-09-20T21:17:05.546Z,14.47
2022-09-20T21:19:35.022Z,14.47
2022-09-20T21:22:05.553Z,14.30
2022-09-20T21:24:34.427Z,14.25
2022-09-20T21:27:05.946Z,14.25
2022-09-20T21:29:35.023Z,14.07
2022-09-20T21:32:03.875Z,14.07
2022-09-20T21:34:32.894Z,14.18
2022-09-20T21:37:01.417Z,14.08
2022-09-20T21:39:30.831Z,14.11
2022-09-20T21:41:59.886Z,14.09
2022-09-20T21:44:28.551Z,14.03
2022-09-20T21:46:57.831Z,13.90
2022-09-20T21:49:26.680Z,13.94
2022-09-20T21:51:55.474Z,13.76
2022-09-20T21:54:25.042Z,13.84
2022-09-20T21:56:56.949Z,13.82
2022-09-20T21:59:27.672Z,13.73
2022-09-20T22:01:57.221Z,13.73
2022-09-20T22:04:29.774Z,13.60
2022-09-20T22:06:59.189Z,13.57
2022-09-20T22:09:27.854Z,13.63
2022-09-20T22:11:56.654Z,13.51
2022-09-20T22:14:25.551Z,13.52
2022-09-20T22:16:54.589Z,13.54
2022-09-20T22:19:23.308Z,13.45
2022-09-20T22:21:52.866Z,13.33
2022-09-20T22:24:22.262Z,13.37
2022-09-20T22:26:52.199Z,13.49
2022-09-20T22:29:21.675Z,13.45
2022-09-20T22:31:51.118Z,13.15
2022-09-20T22:34:25.024Z,13.39
2022-09-20T22:36:54.538Z,13.45
2022-09-20T22:39:24.974Z,13.11
2022-09-20T22:41:55.805Z,13.39
2022-09-20T22:44:25.182Z,13.32
2022-09-20T22:46:54.519Z,13.35
2022-09-20T22:49:23.623Z,13.09
2022-09-20T22:51:53.327Z,13.25
2022-09-20T22:54:23.287Z,13.33
2022-09-20T22:56:53.051Z,13.34
2022-09-20T22:59:22.060Z,13.27
2022-09-20T23:01:51.637Z,13.20
2022-09-20T23:04:24.349Z,13.16
2022-09-20T23:06:57.497Z,13.12
2022-09-20T23:09:30.989Z,13.02
2022-09-20T23:12:00.024Z,12.91
2022-09-20T23:14:28.747Z,12.80
2022-09-20T23:16:57.642Z,13.03
2022-09-20T23:19:27.026Z,12.91
2022-09-20T23:21:55.886Z,12.93
2022-09-20T23:24:24.557Z,12.88
2022-09-20T23:26:53.267Z,12.91
2022-09-20T23:29:23.199Z,12.84
2022-09-20T23:31:54.892Z,12.67
2022-09-20T23:34:23.837Z,12.75
2022-09-20T23:36:52.693Z,12.66
2022-09-20T23:39:21.654Z,12.66
2022-09-20T23:41:51.431Z,12.58
2022-09-20T23:44:20.332Z,12.51
2022-09-20T23:46:49.322Z,12.59
2022-09-20T23:49:18.136Z,12.51
2022-09-20T23:51:47.505Z,12.54
2022-09-20T23:54:16.446Z,12.45
2022-09-20T23:56:45.232Z,12.48
2022-09-20T23:59:14.168Z,12.38
